Time;durP1;ratioP1;P1;durP2;ratioP2;P2;SDS_P1;SDS_P2;PMS_P1;PMS_P2;Temp;Humidity;BMP_temperature;BMP_pressure;BME280_temperature;BME280_humidity;BME280_pressure;Samples;Min_cycle;Max_cycle;Signal;HPM_P1;HPM_P2
2023/06/11 00:00:20;;;;;;;;;4.00;3.67;;;;;21.59;72.04;100224.88;5049020;28;45489;-77
2023/06/11 00:02:46;;;;;;;;;3.00;3.00;;;;;21.61;71.66;100217.72;5048137;28;45541;-77
2023/06/11 00:05:12;;;;;;;;;4.00;4.00;;;;;21.68;71.30;100223.78;5050341;28;45970;-76
2023/06/11 00:07:38;;;;;;;;;3.33;3.33;;;;;21.76;71.71;100244.91;5029061;28;45527;-77
2023/06/11 00:10:05;;;;;;;;;4.00;3.00;;;;;21.64;71.12;100207.03;5055670;28;45523;-77
2023/06/11 00:12:32;;;;;;;;;3.00;3.00;;;;;21.84;70.24;100234.97;5048759;28;45486;-76
2023/06/11 00:15:02;;;;;;;;;2.00;2.00;;;;;21.79;70.00;100228.91;5051645;28;46068;-76
2023/06/11 00:17:28;;;;;;;;;2.33;2.33;;;;;21.80;69.92;100228.84;5051484;28;45403;-77
2023/06/11 00:19:53;;;;;;;;;3.00;3.00;;;;;21.76;70.83;100226.28;5049129;28;45407;-78
2023/06/11 00:22:19;;;;;;;;;2.00;2.00;;;;;21.77;71.15;100228.06;5048338;28;45458;-79
2023/06/11 00:24:45;;;;;;;;;3.00;3.00;;;;;21.48;70.60;100179.00;5045533;28;45378;-80
2023/06/11 00:27:10;;;;;;;;;2.00;2.00;;;;;21.75;71.62;100236.06;5049850;28;45615;-78
2023/06/11 00:29:36;;;;;;;;;5.33;3.33;;;;;21.59;71.14;100218.69;5032103;28;45377;-79
2023/06/11 00:32:01;;;;;;;;;4.00;3.00;;;;;21.63;71.34;100223.88;5045421;28;45418;-77
2023/06/11 00:34:27;;;;;;;;;3.00;3.00;;;;;21.68;71.03;100233.56;5048745;28;48225;-80
2023/06/11 00:36:53;;;;;;;;;3.00;2.00;;;;;21.64;71.33;100235.38;5050064;28;45512;-76
2023/06/11 00:39:19;;;;;;;;;3.00;3.00;;;;;21.77;70.66;100244.00;5047517;28;45574;-78
2023/06/11 00:41:49;;;;;;;;;2.00;2.00;;;;;21.80;70.50;100233.28;5030567;28;45569;-78
2023/06/11 00:44:18;;;;;;;;;5.00;3.33;;;;;21.83;71.08;100254.50;5047885;28;45531;-77
2023/06/11 00:46:45;;;;;;;;;5.00;4.00;;;;;21.65;70.94;100238.03;5049412;28;45529;-77
2023/06/11 00:49:11;;;;;;;;;3.00;3.00;;;;;21.67;70.82;100237.13;5049215;28;45371;-77
2023/06/11 00:51:42;;;;;;;;;2.00;1.67;;;;;21.70;71.17;100253.00;5042072;28;45397;-77
2023/06/11 00:54:12;;;;;;;;;3.33;3.33;;;;;21.67;70.69;100232.69;5050602;28;45473;-80
2023/06/11 00:56:41;;;;;;;;;3.33;3.33;;;;;21.77;71.18;100246.66;5046555;28;45438;-78
2023/06/11 00:59:07;;;;;;;;;3.67;3.00;;;;;21.66;71.35;100246.88;5022724;28;45619;-77
2023/06/11 01:01:41;;;;;;;;;3.67;3.00;;;;;21.59;71.66;100245.25;5048184;28;45667;-80
2023/06/11 01:04:17;;;;;;;;;4.00;3.00;;;;;21.65;71.67;100240.69;5048434;28;46558;-78
2023/06/11 01:06:49;;;;;;;;;3.67;2.00;;;;;21.64;71.63;100233.59;5044741;28;45493;-79
2023/06/11 01:09:20;;;;;;;;;3.00;2.00;;;;;21.76;71.17;100239.59;5052549;28;45557;-80
2023/06/11 01:11:48;;;;;;;;;2.33;2.33;;;;;21.82;71.13;100228.81;5036949;28;45325;-79
2023/06/11 01:14:16;;;;;;;;;2.00;1.67;;;;;21.90;70.82;100240.16;5053135;28;45367;-79
2023/06/11 01:16:54;;;;;;;;;2.67;2.00;;;;;21.92;70.86;100232.16;5045864;28;45311;-81
2023/06/11 01:19:52;;;;;;;;;3.00;1.33;;;;;22.00;70.92;100235.50;5049480;28;45520;-77
2023/06/11 01:23:00;;;;;;;;;4.33;4.00;;;;;21.77;71.76;100217.41;5042340;28;45432;-80
2023/06/11 01:25:45;;;;;;;;;4.67;4.67;;;;;21.72;71.99;100230.78;5048452;28;45578;-77
2023/06/11 01:28:16;;;;;;;;;3.00;3.00;;;;;21.63;72.51;100223.88;5044484;28;45390;-80
2023/06/11 01:30:48;;;;;;;;;4.00;4.00;;;;;21.57;72.46;100216.03;5045445;28;45359;-80
2023/06/11 01:33:14;;;;;;;;;2.33;2.33;;;;;21.54;72.63;100223.19;5037429;28;45972;-77
2023/06/11 01:35:41;;;;;;;;;5.00;4.33;;;;;21.54;72.78;100225.84;5045829;28;45524;-79
2023/06/11 01:38:08;;;;;;;;;4.67;3.67;;;;;21.57;72.34;100223.16;5042336;28;45675;-80
2023/06/11 01:40:34;;;;;;;;;4.00;4.00;;;;;21.58;71.85;100223.09;5046382;28;45379;-79
2023/06/11 01:43:00;;;;;;;;;3.00;3.00;;;;;21.53;71.82;100201.06;5037200;28;45635;-80
2023/06/11 01:45:28;;;;;;;;;4.67;4.00;;;;;21.75;71.78;100221.91;5042965;28;45402;-80
2023/06/11 01:47:54;;;;;;;;;2.67;2.33;;;;;21.72;71.51;100209.53;5043017;28;45497;-79
2023/06/11 01:50:20;;;;;;;;;2.00;2.00;;;;;21.92;71.27;100216.19;5046669;28;45455;-79
2023/06/11 01:52:46;;;;;;;;;3.67;3.67;;;;;21.99;70.78;100215.16;5046675;28;45390;-79
2023/06/11 01:55:12;;;;;;;;;4.67;4.00;;;;;21.89;70.50;100201.19;5040918;28;45948;-80
2023/06/11 01:57:38;;;;;;;;;3.33;3.00;;;;;22.03;70.51;100215.06;5036563;28;45507;-77
2023/06/11 02:00:06;;;;;;;;;2.00;2.00;;;;;22.07;70.84;100215.00;5039931;28;45466;-77
2023/06/11 02:02:31;;;;;;;;;2.00;2.00;;;;;22.05;70.65;100210.56;5044698;28;45644;-78
2023/06/11 02:04:58;;;;;;;;;3.67;3.00;;;;;21.95;70.66;100184.22;5042494;28;46968;-77
2023/06/11 02:07:23;;;;;;;;;3.00;2.00;;;;;22.01;70.74;100203.56;5029075;28;45222;-77
2023/06/11 02:09:49;;;;;;;;;3.50;3.00;;;;;22.05;71.22;100209.69;4998901;28;1301558;-77
2023/06/11 02:12:15;;;;;;;;;2.00;2.00;;;;;22.01;70.70;100203.56;5046675;28;45991;-77
2023/06/11 02:14:40;;;;;;;;;2.00;2.00;;;;;21.95;70.29;100186.88;5051684;28;46278;-78
2023/06/11 02:17:06;;;;;;;;;4.00;3.00;;;;;22.07;70.23;100191.06;5029729;28;45448;-79
2023/06/11 02:19:31;;;;;;;;;3.00;3.00;;;;;22.11;70.55;100201.56;5044617;28;45329;-77
2023/06/11 02:21:57;;;;;;;;;2.33;2.00;;;;;22.05;70.77;100202.59;5047644;28;45497;-77
2023/06/11 02:24:22;;;;;;;;;3.00;3.00;;;;;21.92;70.86;100185.16;5039444;28;45311;-77
2023/06/11 02:26:48;;;;;;;;;3.00;3.00;;;;;22.01;70.60;100194.72;5037013;28;45434;-79
2023/06/11 02:29:13;;;;;;;;;4.00;3.00;;;;;22.04;70.27;100194.63;5018930;28;45522;-78
2023/06/11 02:31:39;;;;;;;;;3.00;2.67;;;;;21.92;71.13;100174.50;5035418;28;45687;-76
2023/06/11 02:34:05;;;;;;;;;2.00;2.00;;;;;21.85;71.35;100173.78;5053257;28;45792;-79
2023/06/11 02:36:30;;;;;;;;;4.00;3.33;;;;;21.49;71.68;100122.31;5054763;28;45462;-77
2023/06/11 02:38:56;;;;;;;;;2.33;2.00;;;;;21.82;71.74;100179.16;5056969;28;45243;-79
2023/06/11 02:41:21;;;;;;;;;4.33;3.67;;;;;21.80;71.86;100175.66;5035365;28;45433;-77
2023/06/11 02:43:46;;;;;;;;;3.67;2.00;;;;;21.67;72.35;100170.69;5018837;28;46519;-78
2023/06/11 02:46:12;;;;;;;;;5.00;4.00;;;;;21.77;72.45;100185.50;5036415;28;45483;-77
2023/06/11 02:48:38;;;;;;;;;5.00;4.00;;;;;21.72;72.39;100174.97;5026481;28;45453;-78
2023/06/11 02:51:03;;;;;;;;;4.00;3.33;;;;;21.86;71.41;100187.94;5046594;28;45410;-76
2023/06/11 02:53:29;;;;;;;;;5.00;4.00;;;;;21.76;71.88;100171.31;5036545;28;46052;-76
2023/06/11 02:55:54;;;;;;;;;5.00;4.33;;;;;21.72;71.85;100180.28;5035958;28;45415;-78
2023/06/11 02:58:20;;;;;;;;;3.00;3.00;;;;;21.73;71.56;100179.38;5040537;28;45513;-78
2023/06/11 03:00:45;;;;;;;;;3.00;3.00;;;;;21.53;72.10;100139.94;5054284;28;45492;-77
2023/06/11 03:03:11;;;;;;;;;3.00;3.00;;;;;21.82;71.98;100188.94;5055423;28;45346;-79
2023/06/11 03:05:37;;;;;;;;;4.00;3.00;;;;;21.83;71.76;100196.88;5054974;28;45442;-77
2023/06/11 03:08:02;;;;;;;;;3.00;3.00;;;;;21.83;71.66;100185.38;5055294;28;45516;-78
2023/06/11 03:10:28;;;;;;;;;4.00;4.00;;;;;21.88;71.81;100193.25;5055547;28;45401;-76
2023/06/11 03:12:56;;;;;;;;;2.67;2.67;;;;;21.95;71.26;100190.41;5053442;28;46292;-77
2023/06/11 03:15:22;;;;;;;;;3.67;3.67;;;;;21.84;71.80;100184.44;5037189;28;45830;-78
2023/06/11 03:17:48;;;;;;;;;6.00;4.00;;;;;21.76;72.21;100183.75;5055517;28;45410;-78
2023/06/11 03:20:13;;;;;;;;;4.33;3.00;;;;;21.75;72.18;100188.19;5038054;28;45414;-78
2023/06/11 03:22:39;;;;;;;;;4.00;4.00;;;;;21.78;71.41;100182.78;5036430;28;45586;-77
2023/06/11 03:25:05;;;;;;;;;4.00;3.33;;;;;21.88;71.86;100193.25;5045836;28;45694;-77
2023/06/11 03:27:31;;;;;;;;;4.00;3.00;;;;;21.88;71.31;100183.47;5048197;28;45426;-76
2023/06/11 03:29:56;;;;;;;;;2.67;2.00;;;;;21.98;71.47;100192.13;5038845;28;45422;-77
2023/06/11 03:32:22;;;;;;;;;8.33;8.33;;;;;21.98;71.42;100194.78;5039545;28;45608;-77
2023/06/11 03:34:47;;;;;;;;;4.00;4.00;;;;;21.90;71.50;100186.97;5056072;28;45298;-79
2023/06/11 03:37:13;;;;;;;;;2.67;2.67;;;;;21.79;72.43;100178.38;5058564;28;45604;-80
2023/06/11 03:39:38;;;;;;;;;3.67;2.00;;;;;21.76;71.97;100168.66;5047194;28;45465;-80
2023/06/11 03:42:04;;;;;;;;;4.33;4.00;;;;;21.70;71.95;100167.94;5058610;28;46288;-80
2023/06/11 03:44:30;;;;;;;;;5.00;4.00;;;;;21.71;72.34;100175.88;5042734;28;45276;-78
2023/06/11 03:46:55;;;;;;;;;4.67;4.00;;;;;21.54;72.93;100160.28;5054503;28;45674;-78
2023/06/11 03:49:21;;;;;;;;;6.00;6.00;;;;;21.48;72.99;100168.38;5042982;28;45535;-76
2023/06/11 03:51:46;;;;;;;;;4.67;4.00;;;;;21.48;73.24;100176.34;5057502;28;45390;-79
2023/06/11 03:54:12;;;;;;;;;2.33;2.33;;;;;21.40;73.28;100179.13;5057491;28;45523;-76
2023/06/11 03:56:37;;;;;;;;;4.67;4.00;;;;;21.32;73.43;100158.97;5045896;28;45384;-80
2023/06/11 03:59:03;;;;;;;;;4.00;3.00;;;;;21.43;73.11;100175.59;5039333;28;45157;-77
2023/06/11 04:01:29;;;;;;;;;2.00;2.00;;;;;21.48;73.05;100175.50;5054360;28;46256;-77
2023/06/11 04:03:55;;;;;;;;;3.00;3.00;;;;;21.50;73.37;100174.53;5046038;28;45576;-80
2023/06/11 04:06:20;;;;;;;;;2.33;2.00;;;;;21.46;72.85;100159.56;5047333;28;45551;-78
2023/06/11 04:08:46;;;;;;;;;2.33;2.33;;;;;21.46;73.05;100159.56;5049316;28;45527;-80
2023/06/11 04:11:11;;;;;;;;;2.00;2.00;;;;;21.48;73.66;100173.69;5038942;28;46141;-80
2023/06/11 04:13:37;;;;;;;;;3.00;3.00;;;;;21.38;73.28;100166.81;5020764;28;45461;-80
2023/06/11 04:16:04;;;;;;;;;4.00;3.00;;;;;21.32;72.91;100153.63;5038697;28;45529;-79
2023/06/11 04:18:29;;;;;;;;;2.00;2.00;;;;;21.42;72.81;100168.47;5038774;28;45388;-79
2023/06/11 04:20:55;;;;;;;;;4.00;3.00;;;;;21.44;72.82;100178.19;5053744;28;46139;-78
2023/06/11 04:23:20;;;;;;;;;4.00;3.00;;;;;21.44;72.39;100172.03;5044674;28;45414;-80
2023/06/11 04:25:48;;;;;;;;;3.00;3.00;;;;;21.48;72.78;100178.16;5047747;28;45548;-80
2023/06/11 04:28:15;;;;;;;;;2.00;2.00;;;;;21.50;72.69;100177.19;5038900;28;45563;-77
2023/06/11 04:30:41;;;;;;;;;2.00;2.00;;;;;21.51;72.71;100172.78;5037163;28;45490;-78
2023/06/11 04:33:07;;;;;;;;;3.00;3.00;;;;;21.50;73.01;100186.97;5044879;28;46516;-77
2023/06/11 04:35:34;;;;;;;;;3.00;3.00;;;;;21.46;73.05;100186.16;5048306;28;46541;-76
2023/06/11 04:38:06;;;;;;;;;3.67;2.67;;;;;21.54;72.98;100197.50;5025474;28;45529;-76
2023/06/11 04:40:34;;;;;;;;;2.67;2.00;;;;;21.49;72.64;100180.78;5056817;28;45485;-78
2023/06/11 04:43:00;;;;;;;;;3.00;2.00;;;;;21.54;71.91;100188.66;5036471;28;45588;-79
2023/06/11 04:45:26;;;;;;;;;3.67;3.33;;;;;21.52;72.57;100186.00;5036787;28;45316;-78
2023/06/11 04:47:52;;;;;;;;;3.00;3.00;;;;;21.50;72.60;100193.16;5049715;28;45336;-77
2023/06/11 04:50:20;;;;;;;;;3.00;3.00;;;;;21.56;71.95;100205.44;5047374;28;45378;-76
2023/06/11 04:52:51;;;;;;;;;4.00;4.00;;;;;21.50;72.82;100198.47;5050138;28;45554;-77
2023/06/11 04:55:19;;;;;;;;;4.00;3.33;;;;;21.31;74.09;100205.91;5049129;28;45476;-76
2023/06/11 04:57:45;;;;;;;;;4.00;4.00;;;;;21.34;73.64;100205.84;5041804;28;45342;-76
2023/06/11 05:00:11;;;;;;;;;4.33;4.00;;;;;21.16;74.77;100216.81;5040226;28;45497;-77
2023/06/11 05:02:38;;;;;;;;;3.00;3.00;;;;;21.08;74.21;100200.16;5037558;28;45437;-76
2023/06/11 05:05:05;;;;;;;;;5.00;4.33;;;;;21.16;74.38;100209.72;5039635;28;45397;-76
2023/06/11 05:07:31;;;;;;;;;3.00;3.00;;;;;21.02;74.56;100198.50;5038760;28;45344;-77
2023/06/11 05:09:57;;;;;;;;;5.00;4.67;;;;;21.03;74.43;100219.72;5037156;28;45442;-80
2023/06/11 05:12:23;;;;;;;;;4.00;4.00;;;;;20.98;74.87;100226.88;5019209;28;45526;-78
2023/06/11 05:14:48;;;;;;;;;6.67;5.33;;;;;20.96;74.17;100211.88;5049014;28;45417;-76
2023/06/11 05:17:15;;;;;;;;;12.33;9.00;;;;;20.99;75.14;100217.13;5039720;28;45644;-77
2023/06/11 05:19:42;;;;;;;;;5.00;4.00;;;;;20.89;75.69;100204.91;5051339;28;46491;-76
2023/06/11 05:22:07;;;;;;;;;5.00;5.00;;;;;20.91;75.06;100203.09;5038665;28;45546;-78
2023/06/11 05:24:33;;;;;;;;;5.00;4.00;;;;;21.10;74.94;100219.59;5045339;28;45458;-77
2023/06/11 05:26:59;;;;;;;;;5.00;4.33;;;;;21.11;74.57;100186.81;5037639;28;45450;-79
2023/06/11 05:29:25;;;;;;;;;3.00;3.00;;;;;21.40;73.72;100205.72;5056134;28;45355;-76
2023/06/11 05:31:51;;;;;;;;;5.00;5.00;;;;;21.65;73.02;100216.75;5049440;28;45435;-76
2023/06/11 05:34:17;;;;;;;;;4.00;4.00;;;;;21.74;72.37;100196.19;5037114;28;45410;-76
2023/06/11 05:36:45;;;;;;;;;4.00;4.00;;;;;22.07;71.22;100218.53;5051070;28;45185;-77
2023/06/11 05:39:12;;;;;;;;;3.00;3.00;;;;;22.01;70.54;100179.63;5054474;28;47367;-76
2023/06/11 05:41:38;;;;;;;;;4.67;3.67;;;;;22.27;70.63;100223.41;5056656;28;45330;-77
2023/06/11 05:44:04;;;;;;;;;4.00;3.67;;;;;22.20;70.42;100206.69;5055748;28;45455;-76
2023/06/11 05:46:30;;;;;;;;;3.00;3.00;;;;;22.33;69.99;100223.28;5041089;28;45492;-76
2023/06/11 05:48:57;;;;;;;;;4.00;3.00;;;;;22.22;69.63;100219.94;5050476;28;47047;-78
2023/06/11 05:51:23;;;;;;;;;4.33;3.33;;;;;22.22;69.75;100211.97;5036568;28;45756;-79
2023/06/11 05:53:48;;;;;;;;;3.33;3.33;;;;;22.34;69.52;100222.38;5043161;28;45501;-77
2023/06/11 05:56:14;;;;;;;;;4.67;4.00;;;;;22.48;69.06;100214.03;5018971;28;45558;-77
2023/06/11 05:58:39;;;;;;;;;3.00;3.00;;;;;22.72;68.14;100220.56;5034235;28;46568;-78
2023/06/11 06:01:08;;;;;;;;;4.00;3.67;;;;;22.78;67.07;100214.16;5036159;28;45574;-78
2023/06/11 06:03:35;;;;;;;;;4.00;3.33;;;;;23.00;66.26;100210.06;5038845;28;45547;-78
2023/06/11 06:06:02;;;;;;;;;4.67;3.67;;;;;23.09;66.35;100203.63;5038395;28;45586;-76
2023/06/11 06:08:28;;;;;;;;;3.00;3.00;;;;;23.29;65.49;100229.72;5034418;28;46271;-79
2023/06/11 06:10:55;;;;;;;;;6.33;5.00;;;;;23.31;65.23;100229.69;5049884;28;45346;-77
2023/06/11 06:13:24;;;;;;;;;5.67;5.00;;;;;23.30;65.22;100227.94;5052640;28;45402;-76
2023/06/11 06:15:50;;;;;;;;;3.00;3.00;;;;;23.26;65.37;100232.50;5043684;28;45436;-76
2023/06/11 06:18:16;;;;;;;;;3.00;3.00;;;;;23.27;65.64;100233.38;5056062;28;45903;-77
2023/06/11 06:20:46;;;;;;;;;4.00;4.00;;;;;23.31;66.13;100229.69;5039227;28;45632;-75
2023/06/11 06:23:12;;;;;;;;;5.00;4.00;;;;;23.32;65.55;100219.00;5040080;28;45481;-75
2023/06/11 06:25:38;;;;;;;;;4.33;4.33;;;;;23.42;65.05;100232.94;5048136;28;46707;-78
2023/06/11 06:28:05;;;;;;;;;4.00;4.00;;;;;23.47;64.78;100231.00;5043158;28;46865;-79
2023/06/11 06:30:32;;;;;;;;;3.67;3.67;;;;;23.46;64.83;100226.59;5036346;28;45374;-76
2023/06/11 06:32:59;;;;;;;;;5.00;4.00;;;;;23.56;64.34;100230.75;5033899;28;45379;-76
2023/06/11 06:35:25;;;;;;;;;5.33;5.00;;;;;23.59;64.66;100213.78;5036330;28;45546;-77
2023/06/11 06:37:50;;;;;;;;;5.00;4.33;;;;;23.81;63.68;100222.06;5033955;28;47920;-76
2023/06/11 06:40:16;;;;;;;;;4.33;3.67;;;;;23.97;63.18;100231.38;5042749;28;45424;-79
2023/06/11 06:42:42;;;;;;;;;5.00;5.00;;;;;24.13;62.52;100226.44;5045275;28;45434;-77
2023/06/11 06:45:08;;;;;;;;;9.00;9.00;;;;;24.02;62.66;100233.88;5036711;28;45362;-78
2023/06/11 06:47:34;;;;;;;;;5.00;4.00;;;;;23.99;62.89;100220.63;5036103;28;45465;-77
2023/06/11 06:49:59;;;;;;;;;4.00;4.00;;;;;24.15;61.88;100235.25;5035591;28;45388;-78
2023/06/11 06:52:25;;;;;;;;;4.67;4.00;;;;;24.13;61.40;100231.78;5028188;28;45637;-78
2023/06/11 06:54:51;;;;;;;;;6.00;5.00;;;;;24.15;60.02;100234.38;5041873;28;45460;-79
2023/06/11 06:57:17;;;;;;;;;4.00;3.00;;;;;24.11;60.87;100233.59;5033190;28;45480;-78
2023/06/11 06:59:43;;;;;;;;;5.33;4.67;;;;;23.99;60.30;100223.28;5034060;28;45800;-77
2023/06/11 07:02:09;;;;;;;;;3.33;2.67;;;;;23.93;61.63;100239.50;5036090;28;45584;-78
2023/06/11 07:04:35;;;;;;;;;4.33;4.33;;;;;24.09;60.41;100239.91;5018308;28;45437;-78
2023/06/11 07:07:00;;;;;;;;;4.00;3.67;;;;;24.26;60.54;100223.38;5037709;28;45498;-76
2023/06/11 07:09:26;;;;;;;;;5.00;5.00;;;;;24.52;59.87;100228.78;5055169;28;45426;-78
2023/06/11 07:11:52;;;;;;;;;8.00;7.33;;;;;24.73;59.42;100240.56;5040160;28;45515;-78
2023/06/11 07:14:19;;;;;;;;;5.00;5.00;;;;;24.66;58.69;100228.31;5040590;28;45498;-78
2023/06/11 07:16:44;;;;;;;;;5.00;4.33;;;;;24.66;59.13;100206.09;5052623;28;46409;-78
2023/06/11 07:19:10;;;;;;;;;6.00;5.00;;;;;24.94;58.36;100222.91;5044429;28;45330;-76
2023/06/11 07:21:36;;;;;;;;;4.00;4.00;;;;;25.14;58.23;100216.84;5038093;28;45515;-76
2023/06/11 07:24:04;;;;;;;;;4.67;4.67;;;;;25.24;57.35;100204.06;5040530;28;45439;-77
2023/06/11 07:26:30;;;;;;;;;5.33;4.33;;;;;25.29;56.46;100198.56;5038557;28;46082;-77
2023/06/11 07:28:56;;;;;;;;;5.00;5.00;;;;;25.05;56.17;100195.81;5038548;28;45358;-76
2023/06/11 07:31:21;;;;;;;;;6.00;6.00;;;;;25.17;56.53;100199.84;5039263;28;45564;-80
2023/06/11 07:33:48;;;;;;;;;5.00;5.00;;;;;25.24;57.06;100195.19;5038172;28;45403;-77
2023/06/11 07:36:15;;;;;;;;;6.00;5.00;;;;;25.13;57.61;100187.53;5050085;28;45522;-78
2023/06/11 07:38:42;;;;;;;;;5.00;5.00;;;;;25.15;57.01;100201.72;5057916;28;45554;-80
2023/06/11 07:41:08;;;;;;;;;4.00;4.00;;;;;25.03;57.30;100184.31;5039543;28;45484;-80
2023/06/11 07:43:33;;;;;;;;;5.00;5.00;;;;;24.85;57.31;100163.56;5056420;28;45481;-76
2023/06/11 07:45:59;;;;;;;;;5.00;4.67;;;;;25.11;57.66;100202.72;5035078;28;46847;-74
2023/06/11 07:48:25;;;;;;;;;5.33;5.33;;;;;25.09;57.50;100193.88;5057405;28;45786;-75
2023/06/11 07:50:52;;;;;;;;;4.00;4.00;;;;;25.12;57.65;100200.00;5050275;28;45465;-75
2023/06/11 07:53:19;;;;;;;;;5.67;5.67;;;;;25.06;57.51;100194.00;5047974;28;45463;-77
2023/06/11 07:55:44;;;;;;;;;6.33;5.33;;;;;25.04;57.48;100202.06;5040760;28;45452;-76
2023/06/11 07:58:10;;;;;;;;;5.00;5.00;;;;;25.02;57.80;100211.94;5035408;28;45616;-76
2023/06/11 08:00:36;;;;;;;;;5.67;5.67;;;;;24.92;58.13;100197.16;5025307;28;45401;-77
2023/06/11 08:03:01;;;;;;;;;8.00;7.00;;;;;24.80;58.73;100204.66;5047928;28;45443;-77
2023/06/11 08:05:27;;;;;;;;;8.00;8.00;;;;;24.67;60.57;100206.03;5036324;28;46971;-76
2023/06/11 08:07:52;;;;;;;;;7.00;7.00;;;;;24.64;60.69;100198.13;5020717;28;45284;-76
2023/06/11 08:10:18;;;;;;;;;11.33;10.67;;;;;24.41;60.68;100181.03;5050533;28;45393;-77
2023/06/11 08:12:44;;;;;;;;;8.00;8.00;;;;;24.39;60.64;100188.22;5038049;28;45186;-76
2023/06/11 08:15:10;;;;;;;;;7.33;7.33;;;;;24.43;60.70;100186.31;5028448;28;45348;-77
2023/06/11 08:17:35;;;;;;;;;7.33;7.33;;;;;24.45;60.20;100192.47;5037605;28;45520;-75
2023/06/11 08:20:05;;;;;;;;;7.33;6.33;;;;;24.32;60.64;100192.00;5051716;28;46232;-76
2023/06/11 08:22:31;;;;;;;;;9.00;9.00;;;;;24.23;61.81;100200.31;5037027;28;45406;-76
2023/06/11 08:24:56;;;;;;;;;8.33;8.33;;;;;24.16;62.71;100196.09;5045084;28;45476;-76
2023/06/11 08:27:22;;;;;;;;;11.00;10.33;;;;;24.14;62.33;100193.47;5050945;28;45388;-76
2023/06/11 08:29:47;;;;;;;;;8.67;8.33;;;;;24.29;61.88;100192.13;5036924;28;45525;-76
2023/06/11 08:32:13;;;;;;;;;9.33;8.00;;;;;24.38;61.71;100193.59;5045723;28;45451;-78
2023/06/11 08:34:38;;;;;;;;;11.33;11.00;;;;;24.47;61.03;100198.66;5031587;28;46446;-76
2023/06/11 08:37:04;;;;;;;;;9.00;9.00;;;;;24.44;61.43;100192.53;5032474;28;45542;-76
2023/06/11 08:39:30;;;;;;;;;7.00;6.00;;;;;24.57;60.70;100191.22;5044903;28;45542;-75
2023/06/11 08:41:55;;;;;;;;;7.33;7.00;;;;;24.76;60.25;100179.00;5046420;28;45539;-76
2023/06/11 08:44:21;;;;;;;;;9.67;9.33;;;;;24.89;59.83;100162.53;5049937;28;46095;-77
2023/06/11 08:46:49;;;;;;;;;10.00;9.00;;;;;25.11;58.75;100173.31;5053883;28;45548;-77
2023/06/11 08:49:22;;;;;;;;;12.00;10.00;;;;;25.15;58.75;100181.19;5022302;28;45619;-76
2023/06/11 08:51:48;;;;;;;;;9.00;8.67;;;;;25.15;58.48;100162.47;5052586;28;45493;-75
2023/06/11 08:54:15;;;;;;;;;9.67;9.33;;;;;25.32;58.39;100182.41;5040661;28;45963;-76
2023/06/11 08:56:40;;;;;;;;;9.00;9.00;;;;;25.36;58.21;100176.88;5048637;28;45395;-76
2023/06/11 08:59:06;;;;;;;;;8.67;8.33;;;;;25.57;57.94;100171.69;5049342;28;45513;-76
2023/06/11 09:01:32;;;;;;;;;9.33;9.33;;;;;25.82;57.03;100178.75;5041248;28;45229;-76
2023/06/11 09:03:59;;;;;;;;;9.00;9.00;;;;;25.93;57.16;100176.56;5036649;28;45477;-76
2023/06/11 09:06:24;;;;;;;;;9.67;8.67;;;;;26.31;56.36;100172.31;5052262;28;45787;-77
2023/06/11 09:09:02;;;;;;;;;9.33;9.33;;;;;26.64;55.02;100184.41;5051517;28;45999;-77
2023/06/11 09:11:36;;;;;;;;;11.00;10.67;;;;;26.91;54.73;100185.91;5024986;28;46088;-76
2023/06/11 09:14:02;;;;;;;;;12.00;10.00;;;;;26.92;53.90;100166.22;5037049;28;45536;-76
2023/06/11 09:16:28;;;;;;;;;10.33;10.33;;;;;27.09;53.91;100156.53;5038526;28;45540;-76
2023/06/11 09:18:56;;;;;;;;;9.67;8.00;;;;;27.54;53.44;100183.13;5042405;28;45858;-77
2023/06/11 09:21:25;;;;;;;;;8.67;7.67;;;;;27.99;52.58;100185.53;5044627;28;45434;-78
2023/06/11 09:23:51;;;;;;;;;9.00;8.67;;;;;28.60;51.53;100177.16;5047565;28;45422;-76
2023/06/11 09:26:17;;;;;;;;;10.33;9.67;;;;;29.30;49.81;100190.59;5052966;28;45618;-76
2023/06/11 09:28:44;;;;;;;;;9.00;8.67;;;;;29.81;47.37;100177.09;5036661;28;45418;-76
2023/06/11 09:31:10;;;;;;;;;10.67;10.00;;;;;30.60;45.85;100171.66;5025061;28;45443;-77
2023/06/11 09:33:36;;;;;;;;;10.00;10.00;;;;;31.06;44.53;100174.31;5050430;28;45436;-76
2023/06/11 09:36:02;;;;;;;;;13.67;11.67;;;;;31.24;44.43;100176.84;5037286;28;45482;-77
2023/06/11 09:38:28;;;;;;;;;10.00;8.00;;;;;31.05;44.53;100177.94;5049374;28;45398;-77
2023/06/11 09:40:57;;;;;;;;;8.00;8.00;;;;;31.34;43.70;100188.78;5028272;28;45533;-77
2023/06/11 09:43:24;;;;;;;;;8.67;8.67;;;;;31.26;44.00;100185.72;5056491;28;46585;-78
2023/06/11 09:45:54;;;;;;;;;9.00;8.00;;;;;31.33;43.32;100189.75;5039202;28;45832;-79
2023/06/11 09:48:24;;;;;;;;;10.00;9.67;;;;;31.54;43.53;100189.41;5049024;28;45374;-75
2023/06/11 09:50:51;;;;;;;;;10.00;9.00;;;;;31.32;43.06;100191.56;5048269;28;45524;-77
2023/06/11 09:53:22;;;;;;;;;11.00;10.67;;;;;31.76;42.17;100184.38;5038078;28;46380;-81
2023/06/11 09:55:50;;;;;;;;;11.00;11.00;;;;;32.01;42.34;100191.78;5036371;28;45612;-75
2023/06/11 09:58:24;;;;;;;;;8.33;8.00;;;;;32.26;41.46;100188.31;5039770;28;45935;-75
2023/06/11 10:00:52;;;;;;;;;11.67;9.00;;;;;32.62;41.51;100175.19;5036778;28;45484;-75
2023/06/11 10:03:18;;;;;;;;;11.33;11.00;;;;;33.35;40.85;100193.56;5031893;28;46347;-77
2023/06/11 10:05:44;;;;;;;;;13.00;11.00;;;;;33.46;38.80;100179.25;5049394;28;45612;-77
2023/06/11 10:08:20;;;;;;;;;8.00;8.00;;;;;33.51;38.94;100190.66;5038966;28;45545;-75
2023/06/11 10:10:48;;;;;;;;;8.00;7.67;;;;;33.48;39.19;100186.31;5035078;28;45486;-77
2023/06/11 10:13:28;;;;;;;;;10.00;9.00;;;;;33.43;39.80;100187.63;5035849;28;46016;-78
2023/06/11 10:15:53;;;;;;;;;8.00;8.00;;;;;33.43;39.78;100195.75;5036281;28;45491;-76
2023/06/11 10:18:25;;;;;;;;;7.33;7.33;;;;;33.44;39.39;100184.78;5036174;28;45339;-75
2023/06/11 10:20:55;;;;;;;;;8.00;8.00;;;;;33.46;39.88;100179.25;5044977;28;45532;-75
2023/06/11 10:23:21;;;;;;;;;10.00;9.00;;;;;33.78;39.20;100182.38;5042804;28;46267;-76
2023/06/11 10:25:54;;;;;;;;;10.00;9.00;;;;;34.26;38.96;100179.78;5052374;28;45302;-75
2023/06/11 10:28:33;;;;;;;;;7.33;7.33;;;;;34.86;37.35;100156.22;5048724;28;45469;-77
2023/06/11 10:30:59;;;;;;;;;9.67;9.33;;;;;34.87;36.74;100162.50;5036767;28;45225;-80
2023/06/11 10:33:40;;;;;;;;;10.67;10.33;;;;;34.70;36.35;100163.84;5033309;28;47048;-75
2023/06/11 10:36:06;;;;;;;;;11.00;10.67;;;;;34.75;36.35;100147.19;5053981;28;45763;-77
2023/06/11 10:38:37;;;;;;;;;9.33;8.67;;;;;34.94;36.83;100157.47;5046518;28;45511;-78
2023/06/11 10:41:06;;;;;;;;;9.33;9.33;;;;;35.14;36.93;100164.06;5050268;28;45541;-77
2023/06/11 10:43:35;;;;;;;;;9.67;8.67;;;;;35.58;35.86;100148.78;5037306;28;46262;-78
2023/06/11 10:46:03;;;;;;;;;11.33;11.33;;;;;35.98;35.17;100143.66;5021319;28;45449;-77
2023/06/11 10:48:29;;;;;;;;;12.00;11.33;;;;;36.37;34.61;100151.34;5040565;28;45402;-76
2023/06/11 10:51:02;;;;;;;;;13.00;12.67;;;;;36.20;34.40;100148.22;5044226;28;45556;-78
2023/06/11 10:53:40;;;;;;;;;13.33;13.00;;;;;35.58;34.95;100157.78;5042537;28;45457;-78
2023/06/11 10:56:07;;;;;;;;;10.67;10.67;;;;;35.05;36.02;100160.19;5040674;28;45550;-76
2023/06/11 10:58:33;;;;;;;;;11.00;10.67;;;;;34.70;36.19;100171.97;5059530;28;45295;-77
2023/06/11 11:01:00;;;;;;;;;11.00;11.00;;;;;34.37;36.94;100173.53;5039541;28;45577;-76
2023/06/11 11:03:30;;;;;;;;;11.67;11.67;;;;;33.83;38.05;100187.47;5040762;28;47174;-75
2023/06/11 11:05:57;;;;;;;;;11.00;11.00;;;;;33.31;38.65;100191.19;5047050;28;45543;-78
2023/06/11 11:08:23;;;;;;;;;9.00;9.00;;;;;32.64;40.78;100182.19;5053040;28;45398;-78
2023/06/11 11:10:59;;;;;;;;;9.00;8.67;;;;;32.22;40.69;100175.97;5037611;28;45534;-77
2023/06/11 11:13:24;;;;;;;;;9.67;9.67;;;;;31.83;40.60;100174.88;5045543;28;45486;-76
2023/06/11 11:15:51;;;;;;;;;11.67;11.00;;;;;31.76;42.13;100172.69;5047809;28;45461;-75
2023/06/11 11:18:17;;;;;;;;;10.67;10.00;;;;;32.09;41.13;100167.84;5053777;28;45243;-78
2023/06/11 11:20:46;;;;;;;;;13.00;13.00;;;;;32.14;41.13;100172.06;5040267;28;45608;-79
2023/06/11 11:23:12;;;;;;;;;10.33;9.00;;;;;32.02;41.44;100157.53;5045216;28;46429;-79